sensor_id;sensor_type;location;lat;lon;timestamp;P1;durP1;ratioP1;P2;durP2;ratioP2
68375;SDS011;55318;52.068;5.188;2022-08-01T00:00:22;2.7;;;1.7;;
68375;SDS011;55318;52.068;5.188;2022-08-01T00:02:10;2.9;;;2.1;;
68375;SDS011;55318;52.068;5.188;2022-08-01T00:03:56;4.1;;;2.31;;
68375;SDS011;55318;52.068;5.188;2022-08-01T00:05:45;5.5;;;2.21;;
68375;SDS011;55318;52.068;5.188;2022-08-01T00:07:31;3.5;;;2.5;;
68375;SDS011;55318;52.068;5.188;2022-08-01T00:09:17;3.2;;;1.9;;
68375;SDS011;55318;52.068;5.188;2022-08-01T00:12:51;3.1;;;1.9;;
68375;SDS011;55318;52.068;5.188;2022-08-01T00:14:37;5.7;;;1.9;;
68375;SDS011;55318;52.068;5.188;2022-08-01T00:16:24;3.6;;;2.4;;
68375;SDS011;55318;52.068;5.188;2022-08-01T00:18:11;3.0;;;1.8;;
68375;SDS011;55318;52.068;5.188;2022-08-01T00:19:57;4.5;;;1.8;;
68375;SDS011;55318;52.068;5.188;2022-08-01T00:21:44;3.0;;;1.6;;
68375;SDS011;55318;52.068;5.188;2022-08-01T00:25:18;5.3;;;2.7;;
68375;SDS011;55318;52.068;5.188;2022-08-01T00:27:04;3.1;;;2.21;;
68375;SDS011;55318;52.068;5.188;2022-08-01T00:28:50;5.3;;;2.31;;
68375;SDS011;55318;52.068;5.188;2022-08-01T00:30:37;6.0;;;2.5;;
68375;SDS011;55318;52.068;5.188;2022-08-01T00:32:23;3.4;;;2.8;;
68375;SDS011;55318;52.068;5.188;2022-08-01T00:35:57;3.6;;;2.4;;
68375;SDS011;55318;52.068;5.188;2022-08-01T00:37:44;3.7;;;2.1;;
68375;SDS011;55318;52.068;5.188;2022-08-01T00:39:32;4.41;;;2.9;;
68375;SDS011;55318;52.068;5.188;2022-08-01T00:41:19;6.3;;;2.21;;
68375;SDS011;55318;52.068;5.188;2022-08-01T00:43:05;5.0;;;2.6;;
68375;SDS011;55318;52.068;5.188;2022-08-01T00:44:51;3.5;;;2.21;;
68375;SDS011;55318;52.068;5.188;2022-08-01T00:48:23;2.4;;;1.9;;
68375;SDS011;55318;52.068;5.188;2022-08-01T00:50:09;6.6;;;2.6;;
68375;SDS011;55318;52.068;5.188;2022-08-01T00:51:58;3.5;;;2.6;;
68375;SDS011;55318;52.068;5.188;2022-08-01T00:53:45;4.41;;;2.9;;
68375;SDS011;55318;52.068;5.188;2022-08-01T00:55:31;4.41;;;2.7;;
68375;SDS011;55318;52.068;5.188;2022-08-01T00:57:18;7.1;;;2.7;;
68375;SDS011;55318;52.068;5.188;2022-08-01T01:00:53;4.8;;;2.8;;
68375;SDS011;55318;52.068;5.188;2022-08-01T01:02:39;4.1;;;2.7;;
68375;SDS011;55318;52.068;5.188;2022-08-01T01:04:25;3.5;;;2.9;;
68375;SDS011;55318;52.068;5.188;2022-08-01T01:06:15;6.2;;;3.2;;
68375;SDS011;55318;52.068;5.188;2022-08-01T01:08:14;6.6;;;3.9;;
68375;SDS011;55318;52.068;5.188;2022-08-01T01:10:08;4.91;;;2.8;;
68375;SDS011;55318;52.068;5.188;2022-08-01T01:12:02;6.9;;;3.5;;
68375;SDS011;55318;52.068;5.188;2022-08-01T01:15:55;6.9;;;3.3;;
68375;SDS011;55318;52.068;5.188;2022-08-01T01:17:46;5.8;;;3.1;;
68375;SDS011;55318;52.068;5.188;2022-08-01T01:19:44;7.3;;;3.8;;
68375;SDS011;55318;52.068;5.188;2022-08-01T01:21:35;6.9;;;3.2;;
68375;SDS011;55318;52.068;5.188;2022-08-01T01:23:40;6.5;;;3.5;;
68375;SDS011;55318;52.068;5.188;2022-08-01T01:25:40;5.8;;;3.1;;
68375;SDS011;55318;52.068;5.188;2022-08-01T01:27:41;5.0;;;3.6;;
68375;SDS011;55318;52.068;5.188;2022-08-01T01:29:38;7.3;;;4.1;;
68375;SDS011;55318;52.068;5.188;2022-08-01T01:31:28;7.5;;;3.2;;
68375;SDS011;55318;52.068;5.188;2022-08-01T01:33:19;5.7;;;3.5;;
68375;SDS011;55318;52.068;5.188;2022-08-01T01:35:10;7.2;;;3.0;;
68375;SDS011;55318;52.068;5.188;2022-08-01T01:37:08;7.5;;;3.6;;
68375;SDS011;55318;52.068;5.188;2022-08-01T01:40:53;5.0;;;3.1;;
68375;SDS011;55318;52.068;5.188;2022-08-01T01:42:42;8.5;;;3.8;;
68375;SDS011;55318;52.068;5.188;2022-08-01T01:44:30;7.0;;;4.1;;
68375;SDS011;55318;52.068;5.188;2022-08-01T01:46:18;6.9;;;3.4;;
68375;SDS011;55318;52.068;5.188;2022-08-01T01:48:10;8.4;;;3.8;;
68375;SDS011;55318;52.068;5.188;2022-08-01T01:50:00;6.9;;;4.1;;
68375;SDS011;55318;52.068;5.188;2022-08-01T01:51:50;6.7;;;3.9;;
68375;SDS011;55318;52.068;5.188;2022-08-01T01:55:27;8.4;;;3.8;;
68375;SDS011;55318;52.068;5.188;2022-08-01T01:57:16;5.8;;;3.5;;
68375;SDS011;55318;52.068;5.188;2022-08-01T01:59:04;8.31;;;4.1;;
68375;SDS011;55318;52.068;5.188;2022-08-01T02:00:52;6.4;;;3.9;;
68375;SDS011;55318;52.068;5.188;2022-08-01T02:02:41;6.6;;;3.5;;
68375;SDS011;55318;52.068;5.188;2022-08-01T02:04:28;6.1;;;3.8;;
68375;SDS011;55318;52.068;5.188;2022-08-01T02:06:18;6.5;;;3.4;;
68375;SDS011;55318;52.068;5.188;2022-08-01T02:09:53;7.3;;;4.3;;
68375;SDS011;55318;52.068;5.188;2022-08-01T02:11:41;6.6;;;3.7;;
68375;SDS011;55318;52.068;5.188;2022-08-01T02:13:30;6.3;;;3.6;;
68375;SDS011;55318;52.068;5.188;2022-08-01T02:15:17;6.6;;;3.7;;
68375;SDS011;55318;52.068;5.188;2022-08-01T02:17:07;9.1;;;3.5;;
68375;SDS011;55318;52.068;5.188;2022-08-01T02:18:57;4.61;;;3.2;;
68375;SDS011;55318;52.068;5.188;2022-08-01T02:22:33;6.9;;;3.8;;
68375;SDS011;55318;52.068;5.188;2022-08-01T02:24:30;5.0;;;2.5;;
68375;SDS011;55318;52.068;5.188;2022-08-01T02:26:24;6.1;;;3.8;;
68375;SDS011;55318;52.068;5.188;2022-08-01T02:28:13;6.9;;;3.3;;
68375;SDS011;55318;52.068;5.188;2022-08-01T02:30:05;5.4;;;2.9;;
68375;SDS011;55318;52.068;5.188;2022-08-01T02:31:54;6.0;;;2.9;;
68375;SDS011;55318;52.068;5.188;2022-08-01T02:33:45;7.0;;;3.2;;
68375;SDS011;55318;52.068;5.188;2022-08-01T02:35:35;5.3;;;3.2;;
68375;SDS011;55318;52.068;5.188;2022-08-01T02:39:19;5.3;;;3.0;;
68375;SDS011;55318;52.068;5.188;2022-08-01T02:41:09;5.3;;;3.2;;
68375;SDS011;55318;52.068;5.188;2022-08-01T02:42:59;6.3;;;3.5;;
68375;SDS011;55318;52.068;5.188;2022-08-01T02:44:49;4.61;;;2.8;;
68375;SDS011;55318;52.068;5.188;2022-08-01T02:46:38;3.8;;;2.6;;
68375;SDS011;55318;52.068;5.188;2022-08-01T02:48:29;5.0;;;3.3;;
68375;SDS011;55318;52.068;5.188;2022-08-01T02:50:19;5.4;;;2.7;;
68375;SDS011;55318;52.068;5.188;2022-08-01T02:54:01;4.0;;;2.8;;
68375;SDS011;55318;52.068;5.188;2022-08-01T02:55:51;4.41;;;3.0;;
68375;SDS011;55318;52.068;5.188;2022-08-01T02:57:40;5.0;;;3.2;;
68375;SDS011;55318;52.068;5.188;2022-08-01T02:59:29;3.1;;;2.5;;
68375;SDS011;55318;52.068;5.188;2022-08-01T03:01:19;5.0;;;2.9;;
68375;SDS011;55318;52.068;5.188;2022-08-01T03:03:08;5.5;;;2.8;;
68375;SDS011;55318;52.068;5.188;2022-08-01T03:04:57;5.5;;;2.7;;
68375;SDS011;55318;52.068;5.188;2022-08-01T03:08:33;3.9;;;2.6;;
68375;SDS011;55318;52.068;5.188;2022-08-01T03:10:23;3.7;;;2.6;;
68375;SDS011;55318;52.068;5.188;2022-08-01T03:12:14;4.91;;;2.8;;
68375;SDS011;55318;52.068;5.188;2022-08-01T03:14:12;6.0;;;3.4;;
68375;SDS011;55318;52.068;5.188;2022-08-01T03:16:00;4.2;;;2.7;;
68375;SDS011;55318;52.068;5.188;2022-08-01T03:17:51;5.5;;;2.9;;
68375;SDS011;55318;52.068;5.188;2022-08-01T03:19:40;5.11;;;3.2;;
68375;SDS011;55318;52.068;5.188;2022-08-01T03:23:19;6.0;;;3.2;;
68375;SDS011;55318;52.068;5.188;2022-08-01T03:25:08;5.6;;;3.4;;
68375;SDS011;55318;52.068;5.188;2022-08-01T03:26:57;4.8;;;3.0;;
68375;SDS011;55318;52.068;5.188;2022-08-01T03:28:44;7.7;;;4.0;;
68375;SDS011;55318;52.068;5.188;2022-08-01T03:30:33;5.0;;;3.3;;
68375;SDS011;55318;52.068;5.188;2022-08-01T03:32:23;6.2;;;3.8;;
68375;SDS011;55318;52.068;5.188;2022-08-01T03:34:10;6.1;;;3.5;;
68375;SDS011;55318;52.068;5.188;2022-08-01T03:37:48;5.6;;;3.8;;
68375;SDS011;55318;52.068;5.188;2022-08-01T03:39:40;6.0;;;4.2;;
68375;SDS011;55318;52.068;5.188;2022-08-01T03:41:34;5.6;;;3.8;;
68375;SDS011;55318;52.068;5.188;2022-08-01T03:43:29;5.0;;;3.5;;
68375;SDS011;55318;52.068;5.188;2022-08-01T03:45:25;5.7;;;3.9;;
68375;SDS011;55318;52.068;5.188;2022-08-01T03:47:13;6.5;;;4.0;;
68375;SDS011;55318;52.068;5.188;2022-08-01T03:49:06;5.3;;;3.8;;
68375;SDS011;55318;52.068;5.188;2022-08-01T03:51:08;6.0;;;3.9;;
68375;SDS011;55318;52.068;5.188;2022-08-01T03:54:46;6.4;;;4.5;;
68375;SDS011;55318;52.068;5.188;2022-08-01T03:56:38;9.5;;;4.3;;
68375;SDS011;55318;52.068;5.188;2022-08-01T03:58:27;7.7;;;3.6;;
68375;SDS011;55318;52.068;5.188;2022-08-01T04:00:18;4.0;;;2.7;;
68375;SDS011;55318;52.068;5.188;2022-08-01T04:02:05;6.2;;;3.4;;
68375;SDS011;55318;52.068;5.188;2022-08-01T04:03:53;5.3;;;2.9;;
68375;SDS011;55318;52.068;5.188;2022-08-01T04:05:40;5.2;;;2.9;;
68375;SDS011;55318;52.068;5.188;2022-08-01T04:09:16;4.0;;;2.7;;
68375;SDS011;55318;52.068;5.188;2022-08-01T04:11:03;5.8;;;3.4;;
68375;SDS011;55318;52.068;5.188;2022-08-01T04:12:50;7.5;;;3.2;;
68375;SDS011;55318;52.068;5.188;2022-08-01T04:14:38;5.3;;;3.0;;
68375;SDS011;55318;52.068;5.188;2022-08-01T04:16:24;5.9;;;3.4;;
68375;SDS011;55318;52.068;5.188;2022-08-01T04:18:11;4.61;;;2.8;;
68375;SDS011;55318;52.068;5.188;2022-08-01T04:21:44;4.61;;;2.7;;
68375;SDS011;55318;52.068;5.188;2022-08-01T04:23:31;5.2;;;2.9;;
68375;SDS011;55318;52.068;5.188;2022-08-01T04:25:21;4.41;;;2.6;;
68375;SDS011;55318;52.068;5.188;2022-08-01T04:27:13;4.41;;;2.6;;
68375;SDS011;55318;52.068;5.188;2022-08-01T04:29:10;4.61;;;2.9;;
68375;SDS011;55318;52.068;5.188;2022-08-01T04:30:59;7.5;;;3.1;;
68375;SDS011;55318;52.068;5.188;2022-08-01T04:32:47;5.11;;;2.7;;
68375;SDS011;55318;52.068;5.188;2022-08-01T04:36:25;4.61;;;2.4;;
68375;SDS011;55318;52.068;5.188;2022-08-01T04:38:17;3.0;;;2.5;;
68375;SDS011;55318;52.068;5.188;2022-08-01T04:40:10;3.9;;;3.0;;
68375;SDS011;55318;52.068;5.188;2022-08-01T04:43:46;6.1;;;2.8;;
68375;SDS011;55318;52.068;5.188;2022-08-01T04:45:33;4.1;;;2.4;;
68375;SDS011;55318;52.068;5.188;2022-08-01T04:49:09;4.0;;;2.7;;
68375;SDS011;55318;52.068;5.188;2022-08-01T04:50:56;8.81;;;2.8;;
68375;SDS011;55318;52.068;5.188;2022-08-01T04:52:42;3.1;;;2.21;;
68375;SDS011;55318;52.068;5.188;2022-08-01T04:54:30;3.9;;;2.5;;
68375;SDS011;55318;52.068;5.188;2022-08-01T04:56:18;3.3;;;2.21;;
68375;SDS011;55318;52.068;5.188;2022-08-01T04:58:06;4.1;;;2.21;;
68375;SDS011;55318;52.068;5.188;2022-08-01T05:01:47;3.7;;;2.6;;
68375;SDS011;55318;52.068;5.188;2022-08-01T05:03:34;4.7;;;2.5;;
68375;SDS011;55318;52.068;5.188;2022-08-01T05:05:22;5.7;;;2.5;;
68375;SDS011;55318;52.068;5.188;2022-08-01T05:07:08;4.0;;;2.4;;
68375;SDS011;55318;52.068;5.188;2022-08-01T05:08:56;3.5;;;2.5;;
68375;SDS011;55318;52.068;5.188;2022-08-01T05:10:42;4.91;;;1.9;;
68375;SDS011;55318;52.068;5.188;2022-08-01T05:12:28;3.7;;;2.21;;
68375;SDS011;55318;52.068;5.188;2022-08-01T05:16:03;2.6;;;2.0;;
68375;SDS011;55318;52.068;5.188;2022-08-01T05:17:50;3.8;;;2.6;;
68375;SDS011;55318;52.068;5.188;2022-08-01T05:19:37;3.7;;;2.21;;
68375;SDS011;55318;52.068;5.188;2022-08-01T05:23:12;2.9;;;1.8;;
68375;SDS011;55318;52.068;5.188;2022-08-01T05:26:45;2.7;;;2.31;;
68375;SDS011;55318;52.068;5.188;2022-08-01T05:28:31;2.21;;;1.4;;
68375;SDS011;55318;52.068;5.188;2022-08-01T05:30:17;2.4;;;1.3;;
68375;SDS011;55318;52.068;5.188;2022-08-01T05:32:04;2.0;;;1.4;;
68375;SDS011;55318;52.068;5.188;2022-08-01T05:33:51;2.5;;;0.8;;
68375;SDS011;55318;52.068;5.188;2022-08-01T05:35:37;0.9;;;0.7;;
68375;SDS011;55318;52.068;5.188;2022-08-01T05:39:10;1.2;;;1.11;;
68375;SDS011;55318;52.068;5.188;2022-08-01T05:40:57;1.11;;;0.8;;
68375;SDS011;55318;52.068;5.188;2022-08-01T05:42:43;0.5;;;0.5;;
68375;SDS011;55318;52.068;5.188;2022-08-01T05:44:30;1.4;;;1.11;;
68375;SDS011;55318;52.068;5.188;2022-08-01T05:46:17;0.6;;;0.5;;
68375;SDS011;55318;52.068;5.188;2022-08-01T05:51:36;0.8;;;0.8;;
68375;SDS011;55318;52.068;5.188;2022-08-01T05:53:22;0.9;;;0.7;;
68375;SDS011;55318;52.068;5.188;2022-08-01T05:55:09;0.6;;;0.5;;
68375;SDS011;55318;52.068;5.188;2022-08-01T05:56:59;0.7;;;0.6;;
68375;SDS011;55318;52.068;5.188;2022-08-01T05:58:46;0.9;;;0.9;;
68375;SDS011;55318;52.068;5.188;2022-08-01T06:02:20;1.0;;;0.9;;
68375;SDS011;55318;52.068;5.188;2022-08-01T06:04:06;0.7;;;0.5;;
68375;SDS011;55318;52.068;5.188;2022-08-01T06:05:52;1.5;;;0.8;;
68375;SDS011;55318;52.068;5.188;2022-08-01T06:07:39;0.8;;;0.5;;
68375;SDS011;55318;52.068;5.188;2022-08-01T06:09:26;1.3;;;0.6;;
68375;SDS011;55318;52.068;5.188;2022-08-01T06:11:12;0.7;;;0.7;;
68375;SDS011;55318;52.068;5.188;2022-08-01T06:14:49;1.0;;;0.9;;
68375;SDS011;55318;52.068;5.188;2022-08-01T06:16:35;0.5;;;0.5;;
68375;SDS011;55318;52.068;5.188;2022-08-01T06:18:21;0.9;;;0.6;;
68375;SDS011;55318;52.068;5.188;2022-08-01T06:20:09;1.0;;;0.9;;
68375;SDS011;55318;52.068;5.188;2022-08-01T06:21:56;1.2;;;0.6;;
68375;SDS011;55318;52.068;5.188;2022-08-01T06:23:42;2.1;;;0.9;;
68375;SDS011;55318;52.068;5.188;2022-08-01T06:27:16;1.3;;;0.8;;
68375;SDS011;55318;52.068;5.188;2022-08-01T06:29:02;0.6;;;0.6;;
68375;SDS011;55318;52.068;5.188;2022-08-01T06:30:49;0.6;;;0.6;;
68375;SDS011;55318;52.068;5.188;2022-08-01T06:32:36;0.5;;;0.5;;
68375;SDS011;55318;52.068;5.188;2022-08-01T06:34:22;0.8;;;0.6;;
68375;SDS011;55318;52.068;5.188;2022-08-01T06:36:09;2.1;;;0.6;;
68375;SDS011;55318;52.068;5.188;2022-08-01T06:39:42;0.7;;;0.5;;
68375;SDS011;55318;52.068;5.188;2022-08-01T06:41:29;1.3;;;0.7;;
68375;SDS011;55318;52.068;5.188;2022-08-01T06:43:15;0.7;;;0.6;;
68375;SDS011;55318;52.068;5.188;2022-08-01T06:45:02;0.7;;;0.7;;
68375;SDS011;55318;52.068;5.188;2022-08-01T06:46:49;0.8;;;0.5;;
68375;SDS011;55318;52.068;5.188;2022-08-01T06:50:25;0.9;;;0.8;;
68375;SDS011;55318;52.068;5.188;2022-08-01T06:52:11;1.3;;;0.6;;
68375;SDS011;55318;52.068;5.188;2022-08-01T06:53:58;1.0;;;0.5;;
68375;SDS011;55318;52.068;5.188;2022-08-01T06:55:44;0.5;;;0.5;;
68375;SDS011;55318;52.068;5.188;2022-08-01T06:57:30;0.5;;;0.5;;
68375;SDS011;55318;52.068;5.188;2022-08-01T06:59:17;0.7;;;0.4;;
68375;SDS011;55318;52.068;5.188;2022-08-01T07:02:53;0.4;;;0.4;;
68375;SDS011;55318;52.068;5.188;2022-08-01T07:04:42;0.7;;;0.5;;
68375;SDS011;55318;52.068;5.188;2022-08-01T07:06:29;0.4;;;0.4;;
68375;SDS011;55318;52.068;5.188;2022-08-01T07:08:15;0.8;;;0.4;;
68375;SDS011;55318;52.068;5.188;2022-08-01T07:10:03;0.6;;;0.5;;
68375;SDS011;55318;52.068;5.188;2022-08-01T07:11:52;0.8;;;0.8;;
68375;SDS011;55318;52.068;5.188;2022-08-01T07:15:26;1.11;;;0.7;;
68375;SDS011;55318;52.068;5.188;2022-08-01T07:17:13;0.9;;;0.6;;
68375;SDS011;55318;52.068;5.188;2022-08-01T07:19:00;0.8;;;0.8;;
68375;SDS011;55318;52.068;5.188;2022-08-01T07:20:46;1.2;;;0.8;;
68375;SDS011;55318;52.068;5.188;2022-08-01T07:22:32;2.5;;;0.6;;
68375;SDS011;55318;52.068;5.188;2022-08-01T07:24:19;2.31;;;1.11;;
68375;SDS011;55318;52.068;5.188;2022-08-01T07:27:53;2.7;;;0.7;;
68375;SDS011;55318;52.068;5.188;2022-08-01T07:29:39;2.21;;;1.0;;
68375;SDS011;55318;52.068;5.188;2022-08-01T07:31:25;2.9;;;1.4;;
68375;SDS011;55318;52.068;5.188;2022-08-01T07:33:11;2.9;;;1.3;;
68375;SDS011;55318;52.068;5.188;2022-08-01T07:34:58;2.31;;;1.2;;
68375;SDS011;55318;52.068;5.188;2022-08-01T07:38:32;5.2;;;1.5;;
68375;SDS011;55318;52.068;5.188;2022-08-01T07:40:19;5.2;;;1.5;;
68375;SDS011;55318;52.068;5.188;2022-08-01T07:42:06;4.5;;;1.2;;
68375;SDS011;55318;52.068;5.188;2022-08-01T07:43:53;4.0;;;1.0;;
68375;SDS011;55318;52.068;5.188;2022-08-01T07:45:39;2.8;;;1.2;;
68375;SDS011;55318;52.068;5.188;2022-08-01T07:47:27;3.0;;;1.7;;
68375;SDS011;55318;52.068;5.188;2022-08-01T07:51:00;4.8;;;1.3;;
68375;SDS011;55318;52.068;5.188;2022-08-01T07:52:46;9.6;;;1.8;;
68375;SDS011;55318;52.068;5.188;2022-08-01T07:54:33;5.7;;;1.11;;
68375;SDS011;55318;52.068;5.188;2022-08-01T07:56:20;7.1;;;1.4;;
68375;SDS011;55318;52.068;5.188;2022-08-01T07:58:06;9.21;;;1.7;;
68375;SDS011;55318;52.068;5.188;2022-08-01T07:59:53;4.61;;;1.3;;
68375;SDS011;55318;52.068;5.188;2022-08-01T08:03:27;5.6;;;1.11;;
68375;SDS011;55318;52.068;5.188;2022-08-01T08:05:14;3.4;;;1.7;;
68375;SDS011;55318;52.068;5.188;2022-08-01T08:07:01;3.6;;;1.8;;
68375;SDS011;55318;52.068;5.188;2022-08-01T08:08:48;4.1;;;1.5;;
68375;SDS011;55318;52.068;5.188;2022-08-01T08:10:34;6.2;;;1.9;;
68375;SDS011;55318;52.068;5.188;2022-08-01T08:14:07;3.8;;;1.3;;
68375;SDS011;55318;52.068;5.188;2022-08-01T08:15:53;7.0;;;2.8;;
68375;SDS011;55318;52.068;5.188;2022-08-01T08:17:39;4.7;;;1.6;;
68375;SDS011;55318;52.068;5.188;2022-08-01T08:19:26;3.3;;;1.4;;
68375;SDS011;55318;52.068;5.188;2022-08-01T08:21:12;2.21;;;1.2;;
68375;SDS011;55318;52.068;5.188;2022-08-01T08:22:58;3.0;;;1.4;;
68375;SDS011;55318;52.068;5.188;2022-08-01T08:26:32;1.5;;;1.2;;
68375;SDS011;55318;52.068;5.188;2022-08-01T08:28:18;5.3;;;1.11;;
68375;SDS011;55318;52.068;5.188;2022-08-01T08:30:07;5.2;;;1.5;;
68375;SDS011;55318;52.068;5.188;2022-08-01T08:31:54;1.8;;;1.11;;
68375;SDS011;55318;52.068;5.188;2022-08-01T08:33:42;4.7;;;1.4;;
68375;SDS011;55318;52.068;5.188;2022-08-01T08:35:28;5.7;;;1.4;;
68375;SDS011;55318;52.068;5.188;2022-08-01T08:39:03;3.8;;;2.21;;
68375;SDS011;55318;52.068;5.188;2022-08-01T08:40:51;3.6;;;1.11;;
68375;SDS011;55318;52.068;5.188;2022-08-01T08:42:39;3.6;;;1.4;;
68375;SDS011;55318;52.068;5.188;2022-08-01T08:44:26;3.2;;;1.4;;
68375;SDS011;55318;52.068;5.188;2022-08-01T08:46:12;2.7;;;1.4;;
68375;SDS011;55318;52.068;5.188;2022-08-01T08:48:00;3.6;;;1.6;;
68375;SDS011;55318;52.068;5.188;2022-08-01T08:51:37;4.61;;;1.5;;
68375;SDS011;55318;52.068;5.188;2022-08-01T08:53:26;3.2;;;1.2;;
68375;SDS011;55318;52.068;5.188;2022-08-01T08:55:15;1.7;;;1.0;;
68375;SDS011;55318;52.068;5.188;2022-08-01T08:57:03;4.61;;;1.4;;
68375;SDS011;55318;52.068;5.188;2022-08-01T08:58:51;1.5;;;1.2;;
68375;SDS011;55318;52.068;5.188;2022-08-01T09:00:38;4.8;;;1.8;;
68375;SDS011;55318;52.068;5.188;2022-08-01T09:04:12;5.11;;;1.3;;
68375;SDS011;55318;52.068;5.188;2022-08-01T09:05:59;3.4;;;1.11;;
68375;SDS011;55318;52.068;5.188;2022-08-01T09:07:46;5.2;;;1.3;;
68375;SDS011;55318;52.068;5.188;2022-08-01T09:09:32;2.8;;;1.11;;
68375;SDS011;55318;52.068;5.188;2022-08-01T09:11:19;2.5;;;1.0;;
68375;SDS011;55318;52.068;5.188;2022-08-01T09:13:08;5.5;;;1.5;;
68375;SDS011;55318;52.068;5.188;2022-08-01T09:16:44;5.0;;;1.3;;
68375;SDS011;55318;52.068;5.188;2022-08-01T09:18:32;4.0;;;1.0;;
68375;SDS011;55318;52.068;5.188;2022-08-01T09:20:22;9.4;;;1.11;;
68375;SDS011;55318;52.068;5.188;2022-08-01T09:22:10;3.9;;;1.2;;
68375;SDS011;55318;52.068;5.188;2022-08-01T09:24:03;3.3;;;1.0;;
68375;SDS011;55318;52.068;5.188;2022-08-01T09:25:51;1.7;;;0.7;;
68375;SDS011;55318;52.068;5.188;2022-08-01T09:29:27;0.9;;;0.9;;
68375;SDS011;55318;52.068;5.188;2022-08-01T09:31:18;3.1;;;1.11;;
68375;SDS011;55318;52.068;5.188;2022-08-01T09:33:05;0.6;;;0.6;;
68375;SDS011;55318;52.068;5.188;2022-08-01T09:34:51;0.8;;;0.8;;
68375;SDS011;55318;52.068;5.188;2022-08-01T09:36:46;0.9;;;0.7;;
68375;SDS011;55318;52.068;5.188;2022-08-01T09:38:41;1.4;;;0.8;;
68375;SDS011;55318;52.068;5.188;2022-08-01T09:40:43;2.5;;;1.11;;
68375;SDS011;55318;52.068;5.188;2022-08-01T09:42:30;3.7;;;1.3;;
68375;SDS011;55318;52.068;5.188;2022-08-01T09:46:04;2.1;;;0.8;;
68375;SDS011;55318;52.068;5.188;2022-08-01T09:47:55;3.9;;;1.5;;
68375;SDS011;55318;52.068;5.188;2022-08-01T09:49:42;4.0;;;1.11;;
68375;SDS011;55318;52.068;5.188;2022-08-01T09:51:30;2.7;;;1.11;;
68375;SDS011;55318;52.068;5.188;2022-08-01T09:53:20;2.6;;;1.11;;
68375;SDS011;55318;52.068;5.188;2022-08-01T09:55:07;3.8;;;1.5;;
68375;SDS011;55318;52.068;5.188;2022-08-01T09:58:55;4.91;;;1.4;;
68375;SDS011;55318;52.068;5.188;2022-08-01T10:00:42;2.6;;;1.4;;
68375;SDS011;55318;52.068;5.188;2022-08-01T10:02:45;3.4;;;1.2;;
68375;SDS011;55318;52.068;5.188;2022-08-01T10:04:32;1.2;;;1.11;;
68375;SDS011;55318;52.068;5.188;2022-08-01T10:06:19;2.6;;;1.11;;
68375;SDS011;55318;52.068;5.188;2022-08-01T10:08:07;2.21;;;1.2;;
68375;SDS011;55318;52.068;5.188;2022-08-01T10:09:53;7.0;;;1.5;;
68375;SDS011;55318;52.068;5.188;2022-08-01T10:11:40;4.41;;;1.2;;
68375;SDS011;55318;52.068;5.188;2022-08-01T10:15:16;1.9;;;1.2;;
68375;SDS011;55318;52.068;5.188;2022-08-01T10:17:05;3.3;;;0.8;;
68375;SDS011;55318;52.068;5.188;2022-08-01T10:18:54;3.4;;;1.11;;
68375;SDS011;55318;52.068;5.188;2022-08-01T10:20:42;1.6;;;0.7;;
68375;SDS011;55318;52.068;5.188;2022-08-01T10:22:31;2.6;;;1.2;;
68375;SDS011;55318;52.068;5.188;2022-08-01T10:24:18;3.7;;;1.4;;
68375;SDS011;55318;52.068;5.188;2022-08-01T10:27:56;5.3;;;1.3;;
68375;SDS011;55318;52.068;5.188;2022-08-01T10:29:46;1.8;;;0.8;;
68375;SDS011;55318;52.068;5.188;2022-08-01T10:31:39;2.31;;;0.6;;
68375;SDS011;55318;52.068;5.188;2022-08-01T10:33:26;3.2;;;1.2;;
68375;SDS011;55318;52.068;5.188;2022-08-01T10:35:17;2.6;;;0.7;;
68375;SDS011;55318;52.068;5.188;2022-08-01T10:37:04;3.4;;;1.3;;
68375;SDS011;55318;52.068;5.188;2022-08-01T10:42:29;1.4;;;0.5;;
68375;SDS011;55318;52.068;5.188;2022-08-01T10:44:15;2.6;;;1.0;;
68375;SDS011;55318;52.068;5.188;2022-08-01T10:46:03;0.9;;;0.5;;
68375;SDS011;55318;52.068;5.188;2022-08-01T10:47:53;1.5;;;0.6;;
68375;SDS011;55318;52.068;5.188;2022-08-01T10:49:47;2.7;;;0.7;;
68375;SDS011;55318;52.068;5.188;2022-08-01T10:51:39;4.1;;;2.21;;
68375;SDS011;55318;52.068;5.188;2022-08-01T10:55:14;4.0;;;1.3;;
68375;SDS011;55318;52.068;5.188;2022-08-01T10:57:00;5.5;;;1.4;;
68375;SDS011;55318;52.068;5.188;2022-08-01T10:58:47;2.31;;;0.8;;
68375;SDS011;55318;52.068;5.188;2022-08-01T11:00:33;2.0;;;1.11;;
68375;SDS011;55318;52.068;5.188;2022-08-01T11:02:25;1.4;;;1.0;;
68375;SDS011;55318;52.068;5.188;2022-08-01T11:04:14;2.6;;;1.3;;
68375;SDS011;55318;52.068;5.188;2022-08-01T11:09:40;5.11;;;1.3;;
68375;SDS011;55318;52.068;5.188;2022-08-01T11:11:28;5.11;;;1.11;;
68375;SDS011;55318;52.068;5.188;2022-08-01T11:15:47;2.4;;;1.0;;
68375;SDS011;55318;52.068;5.188;2022-08-01T11:17:34;2.6;;;0.9;;
68375;SDS011;55318;52.068;5.188;2022-08-01T11:19:21;3.4;;;0.8;;
68375;SDS011;55318;52.068;5.188;2022-08-01T11:21:09;2.5;;;0.6;;
68375;SDS011;55318;52.068;5.188;2022-08-01T11:23:15;8.2;;;1.4;;
68375;SDS011;55318;52.068;5.188;2022-08-01T11:25:02;1.8;;;1.0;;
68375;SDS011;55318;52.068;5.188;2022-08-01T11:29:10;1.2;;;0.7;;
68375;SDS011;55318;52.068;5.188;2022-08-01T11:33:47;2.21;;;1.0;;
68375;SDS011;55318;52.068;5.188;2022-08-01T11:35:35;2.0;;;0.7;;
68375;SDS011;55318;52.068;5.188;2022-08-01T11:39:13;3.5;;;1.2;;
68375;SDS011;55318;52.068;5.188;2022-08-01T11:41:10;4.0;;;1.2;;
68375;SDS011;55318;52.068;5.188;2022-08-01T11:43:16;5.7;;;1.8;;
68375;SDS011;55318;52.068;5.188;2022-08-01T11:45:19;1.3;;;0.8;;
68375;SDS011;55318;52.068;5.188;2022-08-01T11:47:07;1.8;;;0.9;;
68375;SDS011;55318;52.068;5.188;2022-08-01T11:49:21;2.5;;;1.3;;
68375;SDS011;55318;52.068;5.188;2022-08-01T11:51:14;1.7;;;0.9;;
68375;SDS011;55318;52.068;5.188;2022-08-01T11:53:02;3.3;;;1.11;;
68375;SDS011;55318;52.068;5.188;2022-08-01T11:54:51;2.4;;;1.0;;
68375;SDS011;55318;52.068;5.188;2022-08-01T11:56:41;4.41;;;1.0;;
68375;SDS011;55318;52.068;5.188;2022-08-01T11:58:28;2.0;;;1.3;;
68375;SDS011;55318;52.068;5.188;2022-08-01T12:02:04;2.6;;;1.11;;
68375;SDS011;55318;52.068;5.188;2022-08-01T12:04:00;2.6;;;0.7;;
68375;SDS011;55318;52.068;5.188;2022-08-01T12:05:47;1.9;;;0.5;;
68375;SDS011;55318;52.068;5.188;2022-08-01T12:07:33;1.6;;;0.8;;
68375;SDS011;55318;52.068;5.188;2022-08-01T12:09:21;1.5;;;0.7;;
68375;SDS011;55318;52.068;5.188;2022-08-01T12:11:08;5.4;;;0.9;;
68375;SDS011;55318;52.068;5.188;2022-08-01T12:14:52;1.0;;;0.5;;
68375;SDS011;55318;52.068;5.188;2022-08-01T12:16:40;0.7;;;0.7;;
68375;SDS011;55318;52.068;5.188;2022-08-01T12:18:37;5.7;;;0.7;;
68375;SDS011;55318;52.068;5.188;2022-08-01T12:20:27;1.8;;;0.6;;
68375;SDS011;55318;52.068;5.188;2022-08-01T12:22:16;1.7;;;0.6;;
68375;SDS011;55318;52.068;5.188;2022-08-01T12:24:03;0.7;;;0.7;;
68375;SDS011;55318;52.068;5.188;2022-08-01T12:25:50;0.8;;;0.5;;
68375;SDS011;55318;52.068;5.188;2022-08-01T12:27:38;2.0;;;0.6;;
68375;SDS011;55318;52.068;5.188;2022-08-01T12:31:30;1.2;;;0.6;;
68375;SDS011;55318;52.068;5.188;2022-08-01T12:33:17;1.4;;;0.7;;
68375;SDS011;55318;52.068;5.188;2022-08-01T12:35:06;1.0;;;0.5;;
68375;SDS011;55318;52.068;5.188;2022-08-01T12:36:55;1.2;;;0.5;;
68375;SDS011;55318;52.068;5.188;2022-08-01T12:38:44;2.4;;;1.0;;
68375;SDS011;55318;52.068;5.188;2022-08-01T12:40:40;2.0;;;0.6;;
68375;SDS011;55318;52.068;5.188;2022-08-01T12:42:29;1.6;;;0.7;;
68375;SDS011;55318;52.068;5.188;2022-08-01T12:46:02;2.6;;;1.11;;
68375;SDS011;55318;52.068;5.188;2022-08-01T12:47:49;1.2;;;0.8;;
68375;SDS011;55318;52.068;5.188;2022-08-01T12:49:38;4.2;;;0.7;;
68375;SDS011;55318;52.068;5.188;2022-08-01T12:51:27;2.0;;;0.6;;
68375;SDS011;55318;52.068;5.188;2022-08-01T12:53:14;1.4;;;0.6;;
68375;SDS011;55318;52.068;5.188;2022-08-01T12:55:04;1.5;;;0.5;;
68375;SDS011;55318;52.068;5.188;2022-08-01T12:56:57;0.8;;;0.3;;
68375;SDS011;55318;52.068;5.188;2022-08-01T13:00:29;0.5;;;0.4;;
68375;SDS011;55318;52.068;5.188;2022-08-01T13:02:16;0.7;;;0.4;;
68375;SDS011;55318;52.068;5.188;2022-08-01T13:04:04;1.11;;;1.0;;
68375;SDS011;55318;52.068;5.188;2022-08-01T13:05:51;1.5;;;0.6;;
68375;SDS011;55318;52.068;5.188;2022-08-01T13:07:42;1.3;;;0.7;;
68375;SDS011;55318;52.068;5.188;2022-08-01T13:09:32;1.3;;;0.7;;
68375;SDS011;55318;52.068;5.188;2022-08-01T13:13:06;2.1;;;0.9;;